Time;durP1;ratioP1;P1;durP2;ratioP2;P2;SDS_P1;SDS_P2;PMS_P1;PMS_P2;Temp;Humidity;BMP_temperature;BMP_pressure;BME280_temperature;BME280_humidity;BME280_pressure;Samples;Min_cycle;Max_cycle;Signal;HPM_P1;HPM_P2
2022/01/23 00:00:05;;;;;;;;;;;;;;;29.24;16.12;100953.31;5023076;28;847;-39
2022/01/23 00:02:32;;;;;;;;;;;;;;;29.25;16.08;100945.00;5032779;28;826;-39
2022/01/23 00:04:58;;;;;;;;;;;;;;;29.16;16.12;100949.69;5038962;28;826;-40
2022/01/23 00:07:25;;;;;;;;;;;;;;;29.17;16.04;100954.09;5038846;28;861;-39
2022/01/23 00:09:50;;;;;;;;;;;;;;;29.24;15.91;100958.75;5035247;28;883;-39
2022/01/23 00:12:19;;;;;;;;;;;;;;;29.28;15.84;100951.91;5025503;28;734;-39
2022/01/23 00:17:37;;;;;;;;;;;;;;;29.06;15.87;100951.91;5018988;28;683;-39
2022/01/23 00:20:04;;;;;;;;;;;;;;;29.10;16.02;100950.47;5019683;28;798;-40
2022/01/23 00:22:41;;;;;;;;;;;;;;;29.09;15.95;100944.19;5019500;28;861;-41
2022/01/23 00:30:35;;;;;;;;;;;;;;;29.06;16.22;100957.31;5037990;28;703;-40
2022/01/23 00:33:01;;;;;;;;;;;;;;;28.81;16.19;100957.63;5037942;28;813;-41
2022/01/23 00:35:27;;;;;;;;;;;;;;;28.72;16.33;100965.00;5038372;28;2054;-41
2022/01/23 00:37:52;;;;;;;;;;;;;;;28.72;16.20;100968.56;5029992;28;738;-41
2022/01/23 00:40:18;;;;;;;;;;;;;;;28.63;16.24;100963.44;5020785;28;739;-41
2022/01/23 00:42:43;;;;;;;;;;;;;;;28.46;16.37;100963.63;5019682;28;755;-41
2022/01/23 00:47:37;;;;;;;;;;;;;;;28.13;16.44;100972.91;5018514;28;828;-41
2022/01/23 00:50:03;;;;;;;;;;;;;;;28.52;16.41;100973.69;5020309;28;969;-42
2022/01/23 00:52:28;;;;;;;;;;;;;;;28.36;16.17;100972.84;5019102;28;805;-42
2022/01/23 00:54:55;;;;;;;;;;;;;;;28.30;16.45;100978.13;5019211;28;1977;-43
2022/01/23 00:57:20;;;;;;;;;;;;;;;28.60;16.15;100964.63;5019179;28;726;-43
2022/01/23 00:59:46;;;;;;;;;;;;;;;28.20;16.31;100956.78;5018625;28;834;-41
2022/01/23 01:02:11;;;;;;;;;;;;;;;28.36;16.31;100953.09;5022399;28;870;-42
2022/01/23 01:04:36;;;;;;;;;;;;;;;28.50;16.52;100955.97;5018612;28;861;-40
2022/01/23 01:07:02;;;;;;;;;;;;;;;28.45;16.52;100956.53;5018843;28;807;-40
2022/01/23 01:09:29;;;;;;;;;;;;;;;28.49;16.20;100955.13;5020828;28;795;-40
2022/01/23 01:12:01;;;;;;;;;;;;;;;28.52;16.40;100954.75;5019789;28;768;-40
2022/01/23 01:30:37;;;;;;;;;;;;;;;28.34;16.28;100950.53;5017807;28;604;-41
2022/01/23 01:35:43;;;;;;;;;;;;;;;28.56;16.33;100960.63;5017622;28;1965;-40
2022/01/23 01:38:09;;;;;;;;;;;;;;;28.53;16.11;100961.03;5017835;28;806;-41
2022/01/23 01:40:34;;;;;;;;;;;;;;;28.61;16.27;100966.34;5020682;28;786;-41
2022/01/23 01:42:59;;;;;;;;;;;;;;;28.63;16.29;100960.72;5017732;28;818;-42
2022/01/23 01:45:26;;;;;;;;;;;;;;;28.63;16.11;100971.56;5017669;28;807;-41
2022/01/23 01:47:52;;;;;;;;;;;;;;;28.56;16.39;100964.16;5018109;28;758;-41
2022/01/23 01:50:18;;;;;;;;;;;;;;;28.73;16.13;100966.66;5018777;28;1014;-40
2022/01/23 01:52:43;;;;;;;;;;;;;;;28.62;16.17;100973.41;5018578;28;922;-39
2022/01/23 01:55:11;;;;;;;;;;;;;;;28.83;15.91;100972.63;5025875;28;2008;-39
2022/01/23 01:57:43;;;;;;;;;;;;;;;28.82;16.28;100972.81;5017587;28;775;-40
2022/01/23 02:00:37;;;;;;;;;;;;;;;27.73;16.71;100983.91;5017449;28;810;-42
2022/01/23 02:08:27;;;;;;;;;;;;;;;29.56;15.38;100995.31;5032159;28;616;-40
2022/01/23 02:10:57;;;;;;;;;;;;;;;29.11;15.85;100991.94;5030180;28;798;-39
2022/01/23 02:13:30;;;;;;;;;;;;;;;29.02;15.98;100994.78;5036485;28;841;-40
2022/01/23 02:51:28;;;;;;;;;;;;;;;29.29;15.65;101010.47;5017661;28;1243;-40
2022/01/23 02:54:18;;;;;;;;;;;;;;;29.47;15.53;101012.75;5016032;28;1049;-43
2022/01/23 02:56:45;;;;;;;;;;;;;;;29.42;15.41;101010.63;5017884;28;1973;-40
2022/01/23 02:59:21;;;;;;;;;;;;;;;29.55;15.37;101011.78;5016579;28;767;-40
2022/01/23 03:02:01;;;;;;;;;;;;;;;29.40;15.80;101011.84;5016931;28;795;-39
2022/01/23 03:04:26;;;;;;;;;;;;;;;29.46;15.46;101017.31;5016755;28;801;-40
2022/01/23 03:07:08;;;;;;;;;;;;;;;29.58;15.43;101022.22;5016005;28;774;-40
2022/01/23 03:25:47;;;;;;;;;;;;;;;29.23;15.79;101050.00;5026884;28;679;-39
2022/01/23 03:30:51;;;;;;;;;;;;;;;29.48;15.51;101052.38;5034989;28;706;-39
2022/01/23 03:33:17;;;;;;;;;;;;;;;29.40;15.59;101053.34;5035465;28;866;-39
2022/01/23 03:35:42;;;;;;;;;;;;;;;29.80;15.35;101058.34;5025109;28;1957;-39
2022/01/23 03:38:07;;;;;;;;;;;;;;;29.47;15.85;101058.81;5016060;28;815;-40
2022/01/23 03:40:32;;;;;;;;;;;;;;;29.41;15.71;101062.31;5017973;28;781;-41
2022/01/23 03:43:08;;;;;;;;;;;;;;;29.58;15.68;101062.88;5016273;28;814;-42
2022/01/23 03:50:47;;;;;;;;;;;;;;;29.57;15.45;101062.06;4995239;28;1216;-42
2022/01/23 03:53:13;;;;;;;;;;;;;;;29.43;15.61;101066.50;5016138;28;801;-40
2022/01/23 03:55:38;;;;;;;;;;;;;;;29.45;15.63;101060.88;5020487;28;1910;-39
2022/01/23 03:58:03;;;;;;;;;;;;;;;29.43;15.81;101066.50;5016455;28;839;-44
2022/01/23 04:00:29;;;;;;;;;;;;;;;29.50;15.86;101073.84;5019716;28;810;-39
2022/01/23 04:02:54;;;;;;;;;;;;;;;29.43;15.52;101060.22;5015992;28;854;-40
2022/01/23 04:05:19;;;;;;;;;;;;;;;29.69;15.55;101069.72;5016215;28;804;-40
2022/01/23 04:07:45;;;;;;;;;;;;;;;29.41;15.83;101070.44;5015814;28;945;-40
2022/01/23 04:10:13;;;;;;;;;;;;;;;29.45;15.87;101075.28;5017887;28;897;-39
2022/01/23 04:15:21;;;;;;;;;;;;;;;29.53;15.84;101068.91;5034721;28;1910;-45
2022/01/23 04:21:01;;;;;;;;;;;;;;;29.43;15.86;101071.91;5037906;28;700;-42
2022/01/23 04:45:30;;;;;;;;;;;;;;;26.73;12.30;101089.69;5018713;28;662;-36
2022/01/23 05:01:06;;;;;;;;;;;;;;;26.28;11.97;101119.72;5037685;28;808;-35
2022/01/23 05:06:08;;;;;;;;;;;;;;;25.93;13.44;101141.41;5023904;28;709;-35
2022/01/23 05:08:36;;;;;;;;;;;;;;;27.44;13.06;101151.09;5018169;28;870;-38
2022/01/23 05:11:02;;;;;;;;;;;;;;;27.21;13.03;101165.34;5020044;28;827;-41
2022/01/23 05:13:27;;;;;;;;;;;;;;;27.18;12.61;101152.19;5018337;28;842;-39
2022/01/23 05:15:53;;;;;;;;;;;;;;;27.41;11.75;101156.81;5001102;28;1894;-40
2022/01/23 05:18:18;;;;;;;;;;;;;;;25.50;11.40;101155.75;5017466;28;806;-38
2022/01/23 05:20:45;;;;;;;;;;;;;;;24.86;11.42;101161.44;5029813;28;1033;-37
2022/01/23 05:23:11;;;;;;;;;;;;;;;24.41;11.60;101154.19;5037617;28;993;-38
2022/01/23 05:25:37;;;;;;;;;;;;;;;24.73;11.73;101159.13;5029031;28;825;-39
2022/01/23 05:28:03;;;;;;;;;;;;;;;26.19;12.44;101167.41;5017995;28;763;-43
2022/01/23 05:30:28;;;;;;;;;;;;;;;26.93;13.08;101167.56;5006072;28;1373;-44
2022/01/23 05:32:55;;;;;;;;;;;;;;;27.35;13.05;101176.44;5017933;28;825;-41
2022/01/23 05:35:23;;;;;;;;;;;;;;;27.63;13.32;101187.66;5017956;28;2252;-44
2022/01/23 05:37:48;;;;;;;;;;;;;;;27.99;12.90;101189.00;5017996;28;901;-42
2022/01/23 05:40:15;;;;;;;;;;;;;;;27.53;13.46;101200.53;5017725;28;916;-40
2022/01/23 05:42:41;;;;;;;;;;;;;;;27.30;13.85;101198.59;5019869;28;839;-41
2022/01/23 05:45:08;;;;;;;;;;;;;;;28.02;13.38;101195.94;5018245;28;921;-43
2022/01/23 05:47:33;;;;;;;;;;;;;;;29.13;12.88;101202.00;5017822;28;845;-44
2022/01/23 05:49:58;;;;;;;;;;;;;;;28.22;13.42;101195.47;5022037;28;1021;-35
2022/01/23 05:52:23;;;;;;;;;;;;;;;26.44;11.35;101194.44;5017375;28;794;-35
2022/01/23 05:54:49;;;;;;;;;;;;;;;25.69;11.27;101207.72;5023378;28;1982;-35
2022/01/23 05:57:14;;;;;;;;;;;;;;;24.81;11.75;101197.72;5020990;28;742;-35
2022/01/23 05:59:39;;;;;;;;;;;;;;;26.21;13.56;101208.53;5017404;28;952;-42
2022/01/23 06:02:05;;;;;;;;;;;;;;;27.12;13.69;101209.59;5017908;28;745;-41
2022/01/23 06:04:30;;;;;;;;;;;;;;;27.65;13.62;101209.09;5016960;28;1108;-41
2022/01/23 06:06:57;;;;;;;;;;;;;;;27.92;13.64;101211.53;5017635;28;888;-43
2022/01/23 06:09:23;;;;;;;;;;;;;;;28.29;13.62;101211.81;5020291;28;883;-41
2022/01/23 06:11:48;;;;;;;;;;;;;;;28.52;13.95;101219.13;5036169;28;814;-45
2022/01/23 06:14:13;;;;;;;;;;;;;;;28.82;13.93;101225.47;5036236;28;767;-44
2022/01/23 06:16:39;;;;;;;;;;;;;;;28.98;14.04;101229.06;5036420;28;1961;-43
2022/01/23 06:19:04;;;;;;;;;;;;;;;29.10;13.75;101226.75;5035740;28;774;-43
2022/01/23 06:21:29;;;;;;;;;;;;;;;29.33;14.12;101225.81;5029821;28;924;-42
2022/01/23 06:24:03;;;;;;;;;;;;;;;29.48;13.77;101225.00;5016984;28;901;-42
2022/01/23 06:26:32;;;;;;;;;;;;;;;29.16;14.36;101226.00;5022373;28;1019;-42
2022/01/23 06:29:01;;;;;;;;;;;;;;;29.19;14.78;101222.94;5012103;28;917;-41
2022/01/23 06:31:27;;;;;;;;;;;;;;;29.55;14.29;101234.03;5036162;28;915;-42
2022/01/23 06:33:52;;;;;;;;;;;;;;;29.78;14.15;101230.44;5026827;28;818;-42
2022/01/23 06:36:17;;;;;;;;;;;;;;;29.85;14.09;101235.91;5016640;28;1906;-41
2022/01/23 06:38:43;;;;;;;;;;;;;;;29.96;14.46;101232.72;5016838;28;1078;-42
2022/01/23 06:41:08;;;;;;;;;;;;;;;30.09;14.36;101232.03;5017772;28;806;-42
2022/01/23 06:43:33;;;;;;;;;;;;;;;30.06;14.35;101233.25;5017032;28;751;-40
2022/01/23 06:45:58;;;;;;;;;;;;;;;30.22;14.43;101246.78;5020091;28;930;-41
2022/01/23 06:48:24;;;;;;;;;;;;;;;30.38;14.12;101234.88;5018786;28;790;-39
2022/01/23 06:50:50;;;;;;;;;;;;;;;30.36;14.24;101228.78;5020835;28;1033;-38
2022/01/23 06:53:15;;;;;;;;;;;;;;;30.50;14.33;101224.31;5016897;28;851;-39
2022/01/23 06:55:40;;;;;;;;;;;;;;;30.71;14.21;101234.31;5015881;28;1985;-38
2022/01/23 06:58:06;;;;;;;;;;;;;;;30.74;14.14;101233.94;5016188;28;858;-39
2022/01/23 07:00:33;;;;;;;;;;;;;;;30.87;14.00;101237.81;5018978;28;892;-39
2022/01/23 07:02:58;;;;;;;;;;;;;;;30.98;14.10;101236.44;5016511;28;865;-39
2022/01/23 07:05:23;;;;;;;;;;;;;;;30.91;14.13;101239.13;5016345;28;792;-39
2022/01/23 07:07:49;;;;;;;;;;;;;;;31.12;14.02;101246.34;5016606;28;929;-39
2022/01/23 07:10:16;;;;;;;;;;;;;;;31.11;13.98;101243.84;5017922;28;845;-39
2022/01/23 07:12:42;;;;;;;;;;;;;;;31.23;14.00;101244.94;5016191;28;730;-39
2022/01/23 07:15:08;;;;;;;;;;;;;;;31.28;13.96;101242.47;5016014;28;1883;-40
2022/01/23 07:17:37;;;;;;;;;;;;;;;31.39;13.79;101245.72;5016572;28;806;-38
2022/01/23 07:20:03;;;;;;;;;;;;;;;31.38;13.88;101241.31;5016222;28;858;-39
2022/01/23 07:22:28;;;;;;;;;;;;;;;31.47;13.87;101241.97;5016359;28;776;-39
2022/01/23 07:24:55;;;;;;;;;;;;;;;31.55;13.85;101241.00;5018519;28;1016;-40
2022/01/23 07:27:22;;;;;;;;;;;;;;;31.55;13.76;101243.72;5028958;28;837;-40
2022/01/23 07:29:48;;;;;;;;;;;;;;;31.58;13.79;101244.13;5035355;28;830;-38
2022/01/23 07:32:13;;;;;;;;;;;;;;;31.57;14.07;101244.34;5035322;28;848;-39
2022/01/23 07:34:38;;;;;;;;;;;;;;;31.74;13.78;101245.69;5035090;28;831;-38
2022/01/23 07:37:04;;;;;;;;;;;;;;;31.81;13.95;101245.72;5034499;28;1890;-38
2022/01/23 07:39:29;;;;;;;;;;;;;;;31.85;13.98;101243.41;5020325;28;810;-38
2022/01/23 07:41:55;;;;;;;;;;;;;;;31.91;13.86;101244.47;5017389;28;978;-38
2022/01/23 07:44:20;;;;;;;;;;;;;;;31.91;13.77;101241.75;5016288;28;772;-38
2022/01/23 07:46:45;;;;;;;;;;;;;;;31.85;13.61;101232.53;5016299;28;917;-38
2022/01/23 07:49:10;;;;;;;;;;;;;;;31.84;13.82;101230.84;4999905;28;1202;-39
2022/01/23 07:51:37;;;;;;;;;;;;;;;31.82;13.98;101239.22;5015822;28;857;-38
2022/01/23 07:54:02;;;;;;;;;;;;;;;31.88;13.78;101234.84;5017286;28;1216;-39
2022/01/23 07:56:27;;;;;;;;;;;;;;;31.92;13.85;101224.38;5034427;28;1977;-41
2022/01/23 07:58:53;;;;;;;;;;;;;;;31.89;13.77;101226.50;5038822;28;734;-41
2022/01/23 08:01:18;;;;;;;;;;;;;;;31.87;13.93;101223.13;5038772;28;947;-41
2022/01/23 08:03:43;;;;;;;;;;;;;;;31.89;13.97;101217.47;5030242;28;827;-41
2022/01/23 08:06:11;;;;;;;;;;;;;;;31.77;13.93;101220.78;5019880;28;910;-41
2022/01/23 08:08:37;;;;;;;;;;;;;;;31.91;13.65;101217.28;5019477;28;897;-41
2022/01/23 08:11:02;;;;;;;;;;;;;;;31.86;13.98;101221.47;5032255;28;944;-41
2022/01/23 08:13:27;;;;;;;;;;;;;;;31.83;13.98;101210.97;5038589;28;790;-41
2022/01/23 08:15:52;;;;;;;;;;;;;;;31.88;13.80;101204.94;5029115;28;1906;-40
2022/01/23 08:18:18;;;;;;;;;;;;;;;31.84;14.05;101201.78;5019339;28;759;-39
2022/01/23 08:20:43;;;;;;;;;;;;;;;31.74;13.96;101213.03;5019307;28;996;-40
2022/01/23 08:23:08;;;;;;;;;;;;;;;31.80;13.90;101211.38;5019339;28;945;-39
2022/01/23 08:25:34;;;;;;;;;;;;;;;31.81;13.95;101212.22;5020646;28;836;-41
2022/01/23 08:27:59;;;;;;;;;;;;;;;31.85;13.76;101210.75;5023546;28;909;-39
2022/01/23 08:30:25;;;;;;;;;;;;;;;31.87;13.83;101214.97;5020758;28;798;-41
2022/01/23 08:32:50;;;;;;;;;;;;;;;31.85;13.95;101210.75;5019066;28;825;-41
2022/01/23 08:35:15;;;;;;;;;;;;;;;31.87;13.93;101206.81;5018959;28;1951;-39
2022/01/23 08:37:41;;;;;;;;;;;;;;;31.68;14.07;101207.59;5019092;28;862;-39
2022/01/23 08:40:16;;;;;;;;;;;;;;;31.82;13.99;101211.16;5022765;28;905;-39
2022/01/23 08:42:41;;;;;;;;;;;;;;;31.92;14.04;101221.66;5035766;28;846;-39
2022/01/23 08:45:07;;;;;;;;;;;;;;;31.79;14.14;101217.88;5037555;28;861;-40
2022/01/23 08:47:32;;;;;;;;;;;;;;;31.07;12.36;101245.25;5037030;28;862;-40
2022/01/23 08:49:57;;;;;;;;;;;;;;;30.43;12.22;101214.22;5029609;28;1072;-41
2022/01/23 08:52:23;;;;;;;;;;;;;;;30.51;12.93;101221.41;5018114;28;754;-40
2022/01/23 08:54:49;;;;;;;;;;;;;;;30.89;12.85;101225.72;5019527;28;1952;-40
2022/01/23 08:57:15;;;;;;;;;;;;;;;30.76;13.29;101212.00;5038075;28;798;-41
2022/01/23 08:59:40;;;;;;;;;;;;;;;30.99;13.20;101206.34;5037603;28;730;-42
2022/01/23 09:02:05;;;;;;;;;;;;;;;30.99;13.42;101219.09;5037349;28;896;-44
2022/01/23 09:04:32;;;;;;;;;;;;;;;31.10;13.09;101210.38;5036872;28;826;-44
2022/01/23 09:06:57;;;;;;;;;;;;;;;31.12;13.29;101202.03;5026752;28;806;-41
2022/01/23 09:09:24;;;;;;;;;;;;;;;31.08;13.48;101209.75;5020088;28;916;-41
2022/01/23 09:12:00;;;;;;;;;;;;;;;31.21;13.35;101197.28;5018393;28;787;-45
2022/01/23 09:14:25;;;;;;;;;;;;;;;31.28;13.61;101203.59;5018479;28;858;-40
2022/01/23 09:16:51;;;;;;;;;;;;;;;31.24;13.64;101195.00;5000718;28;1902;-41
2022/01/23 09:19:19;;;;;;;;;;;;;;;31.16;13.63;101193.28;5018766;28;794;-41
2022/01/23 09:21:44;;;;;;;;;;;;;;;31.30;13.85;101198.78;5037421;28;830;-40
2022/01/23 09:24:10;;;;;;;;;;;;;;;31.43;13.94;101191.78;5034500;28;817;-39
2022/01/23 09:26:36;;;;;;;;;;;;;;;31.68;13.67;101193.97;5030701;28;771;-40
2022/01/23 09:29:11;;;;;;;;;;;;;;;31.70;13.73;101198.16;5017907;28;838;-39
2022/01/23 09:31:48;;;;;;;;;;;;;;;31.79;13.68;101196.09;5026756;28;798;-39
2022/01/23 09:34:14;;;;;;;;;;;;;;;31.86;13.70;101188.81;5018006;28;818;-41
2022/01/23 09:36:39;;;;;;;;;;;;;;;31.97;13.59;101183.81;5017689;28;1902;-39
2022/01/23 09:39:05;;;;;;;;;;;;;;;31.65;13.50;101185.19;5017656;28;893;-42
2022/01/23 09:41:31;;;;;;;;;;;;;;;31.35;13.61;101188.16;5017771;28;940;-41
2022/01/23 09:43:56;;;;;;;;;;;;;;;31.20;13.59;101184.75;5017536;28;893;-40
2022/01/23 09:46:22;;;;;;;;;;;;;;;31.13;13.71;101177.38;5013310;28;873;-43
2022/01/23 09:48:48;;;;;;;;;;;;;;;31.11;13.82;101175.91;5036525;28;865;-40
2022/01/23 09:51:14;;;;;;;;;;;;;;;31.06;13.76;101170.25;5018569;28;1187;-40
2022/01/23 09:53:39;;;;;;;;;;;;;;;30.96;13.82;101165.16;5027389;28;1112;-44
2022/01/23 09:56:06;;;;;;;;;;;;;;;30.98;13.90;101163.09;5031231;28;1919;-41
2022/01/23 09:58:31;;;;;;;;;;;;;;;30.97;13.70;101170.41;5021133;28;742;-44
2022/01/23 10:00:57;;;;;;;;;;;;;;;30.91;13.94;101172.03;5017551;28;751;-47
2022/01/23 10:03:23;;;;;;;;;;;;;;;30.79;14.11;101155.44;5000110;28;1431;-46
2022/01/23 10:05:50;;;;;;;;;;;;;;;30.68;14.21;101162.22;5017578;28;778;-46
2022/01/23 10:08:15;;;;;;;;;;;;;;;29.68;14.92;101160.19;5010728;28;1161;-49
2022/01/23 10:10:41;;;;;;;;;;;;;;;29.08;15.30;101144.84;5020802;28;877;-48
2022/01/23 10:13:07;;;;;;;;;;;;;;;30.04;14.86;101139.53;4999500;28;861;-47
2022/01/23 10:15:32;;;;;;;;;;;;;;;30.24;14.46;101133.47;5017264;28;1902;-49
2022/01/23 10:17:58;;;;;;;;;;;;;;;30.03;13.51;101143.28;5016571;28;794;-48
2022/01/23 10:20:23;;;;;;;;;;;;;;;30.24;14.05;101145.19;5020662;28;1140;-45
2022/01/23 10:22:51;;;;;;;;;;;;;;;30.50;14.02;101146.44;5025541;28;1069;-48
2022/01/23 10:25:23;;;;;;;;;;;;;;;30.72;13.87;101129.25;5017607;28;797;-48
2022/01/23 10:28:00;;;;;;;;;;;;;;;30.60;13.92;101135.22;5016776;28;837;-46
2022/01/23 10:30:26;;;;;;;;;;;;;;;30.35;14.22;101132.09;5017222;28;845;-49
2022/01/23 10:33:15;;;;;;;;;;;;;;;30.28;14.27;101130.16;4999091;28;1261;-48
2022/01/23 10:36:00;;;;;;;;;;;;;;;30.22;14.37;101125.53;5020995;28;1978;-44
2022/01/23 10:38:29;;;;;;;;;;;;;;;30.20;14.35;101133.03;5016483;28;849;-44
2022/01/23 10:41:06;;;;;;;;;;;;;;;30.21;14.49;101144.72;5016581;28;810;-47
2022/01/23 10:48:59;;;;;;;;;;;;;;;30.63;14.39;101137.53;5025879;28;875;-47
2022/01/23 10:51:25;;;;;;;;;;;;;;;30.77;14.58;101137.63;5020476;28;727;-44
2022/01/23 10:53:59;;;;;;;;;;;;;;;30.39;14.41;101142.38;5015983;28;1275;-44
2022/01/23 10:56:28;;;;;;;;;;;;;;;30.35;14.48;101132.94;5032312;28;1978;-46
2022/01/23 10:58:57;;;;;;;;;;;;;;;30.43;14.53;101134.66;5035582;28;749;-44
2022/01/23 11:01:23;;;;;;;;;;;;;;;30.67;14.61;101129.84;5031178;28;844;-46
2022/01/23 11:04:06;;;;;;;;;;;;;;;30.73;14.57;101125.50;4998811;28;846;-44
2022/01/23 11:06:32;;;;;;;;;;;;;;;30.87;14.57;101118.28;5016653;28;829;-46
2022/01/23 11:09:07;;;;;;;;;;;;;;;31.07;14.55;101112.97;5017191;28;836;-46
2022/01/23 11:11:38;;;;;;;;;;;;;;;31.10;14.59;101128.88;5029321;28;928;-46
2022/01/23 11:19:42;;;;;;;;;;;;;;;29.90;15.54;101114.13;5016494;28;818;-42
2022/01/23 11:22:14;;;;;;;;;;;;;;;30.10;14.13;101108.91;4999139;28;810;-35
2022/01/23 11:24:42;;;;;;;;;;;;;;;30.14;14.21;101102.06;5021993;28;822;-35
2022/01/23 11:27:08;;;;;;;;;;;;;;;30.24;13.95;101103.63;5016323;28;781;-36
2022/01/23 11:29:33;;;;;;;;;;;;;;;30.27;13.80;101105.94;5019940;28;873;-36
2022/01/23 11:31:59;;;;;;;;;;;;;;;29.65;12.83;101030.47;5032739;28;1081;-36
2022/01/23 11:34:24;;;;;;;;;;;;;;;30.28;13.33;101107.66;5039468;28;1166;-36
2022/01/23 11:36:51;;;;;;;;;;;;;;;30.35;13.30;101108.53;5021702;28;1998;-48
2022/01/23 11:39:28;;;;;;;;;;;;;;;30.86;13.22;101109.34;5033102;28;806;-43
2022/01/23 11:53:49;;;;;;;;;;;;;;;31.11;13.74;101111.56;5025583;28;864;-46
2022/01/23 11:56:27;;;;;;;;;;;;;;;30.35;13.95;101113.94;5039950;28;1909;-43
2022/01/23 11:59:15;;;;;;;;;;;;;;;30.33;13.98;101120.63;5039601;28;865;-45
2022/01/23 12:01:41;;;;;;;;;;;;;;;30.66;14.06;101112.69;5052515;28;809;-47
2022/01/23 12:04:06;;;;;;;;;;;;;;;30.55;14.01;101105.13;5058093;28;889;-44
2022/01/23 12:06:31;;;;;;;;;;;;;;;30.16;14.41;101108.13;5039329;28;753;-45
2022/01/23 12:09:09;;;;;;;;;;;;;;;30.55;14.34;101105.97;5038876;28;898;-48
2022/01/23 12:11:46;;;;;;;;;;;;;;;30.81;14.11;101108.25;5039034;28;834;-46
2022/01/23 12:16:51;;;;;;;;;;;;;;;30.95;14.12;101109.16;5038834;28;1914;-49
2022/01/23 12:19:18;;;;;;;;;;;;;;;31.02;14.11;101108.16;5038807;28;1405;-44
2022/01/23 12:21:43;;;;;;;;;;;;;;;30.45;11.55;101099.22;5039390;28;750;-38
2022/01/23 12:24:09;;;;;;;;;;;;;;;28.79;11.23;101098.59;5039300;28;970;-38
2022/01/23 12:26:34;;;;;;;;;;;;;;;28.30;10.83;101100.72;5042690;28;873;-37
2022/01/23 12:29:13;;;;;;;;;;;;;;;28.37;11.19;101098.16;5021328;28;889;-38
2022/01/23 12:31:38;;;;;;;;;;;;;;;27.53;10.14;101113.25;5038309;28;825;-38
2022/01/23 12:34:04;;;;;;;;;;;;;;;27.12;10.12;101115.94;5039360;28;802;-38
2022/01/23 12:36:31;;;;;;;;;;;;;;;28.33;11.66;101118.47;5038346;28;1909;-45
2022/01/23 12:39:17;;;;;;;;;;;;;;;28.97;11.44;101121.78;5037907;28;866;-45
2022/01/23 12:41:52;;;;;;;;;;;;;;;29.62;11.47;101126.59;5038575;28;1111;-46
2022/01/23 12:44:25;;;;;;;;;;;;;;;29.83;11.58;101124.91;5038511;28;924;-46
2022/01/23 12:46:50;;;;;;;;;;;;;;;30.14;11.95;101131.06;5051282;28;952;-48
2022/01/23 12:49:16;;;;;;;;;;;;;;;30.36;11.91;101141.94;5055575;28;1053;-46
2022/01/23 12:51:42;;;;;;;;;;;;;;;30.53;11.79;101143.31;5037863;28;846;-44
2022/01/23 12:54:11;;;;;;;;;;;;;;;30.44;12.18;101139.09;5031890;28;1337;-47
2022/01/23 12:56:44;;;;;;;;;;;;;;;30.62;12.28;101145.88;5018589;28;1910;-46
2022/01/23 12:59:13;;;;;;;;;;;;;;;30.82;12.19;101153.34;5031235;28;885;-46
2022/01/23 13:01:42;;;;;;;;;;;;;;;30.86;12.69;101151.94;5018759;28;830;-48
2022/01/23 13:04:08;;;;;;;;;;;;;;;30.47;13.34;101154.13;5018505;28;980;-44
2022/01/23 13:06:48;;;;;;;;;;;;;;;30.36;13.57;101148.22;5018423;28;778;-45
2022/01/23 13:12:13;;;;;;;;;;;;;;;30.26;14.08;101155.84;5018236;28;913;-47
2022/01/23 13:14:49;;;;;;;;;;;;;;;29.98;14.13;101154.69;5018268;28;833;-47
2022/01/23 13:30:55;;;;;;;;;;;;;;;29.87;14.67;101166.91;5018339;28;805;-46
2022/01/23 13:33:22;;;;;;;;;;;;;;;29.74;14.79;101161.31;5017849;28;822;-37
2022/01/23 13:35:56;;;;;;;;;;;;;;;29.94;14.91;101175.97;5017630;28;1919;-43
2022/01/23 13:38:22;;;;;;;;;;;;;;;30.02;14.97;101174.13;5017841;28;878;-42
2022/01/23 13:40:57;;;;;;;;;;;;;;;30.05;14.93;101166.47;5019912;28;857;-44
2022/01/23 13:52:00;;;;;;;;;;;;;;;30.03;15.02;101173.13;4973404;28;1093;-45
2022/01/23 13:59:52;;;;;;;;;;;;;;;29.89;15.21;101175.69;5016848;28;749;-43
2022/01/23 14:02:25;;;;;;;;;;;;;;;29.84;15.50;101175.44;5017340;28;1033;-43
2022/01/23 14:04:50;;;;;;;;;;;;;;;29.80;15.16;101179.53;5017566;28;843;-45
2022/01/23 14:07:16;;;;;;;;;;;;;;;29.82;15.27;101180.19;5016880;28;914;-46
2022/01/23 14:09:45;;;;;;;;;;;;;;;29.70;15.15;101179.84;5017856;28;901;-44
2022/01/23 14:12:11;;;;;;;;;;;;;;;29.72;15.40;101182.34;5022234;28;950;-44
2022/01/23 14:14:46;;;;;;;;;;;;;;;29.70;15.60;101186.13;5016957;28;1037;-44
2022/01/23 14:17:12;;;;;;;;;;;;;;;27.88;11.97;101184.00;5029994;28;1894;-38
2022/01/23 14:19:38;;;;;;;;;;;;;;;26.78;11.54;101189.88;5036572;28;790;-38
2022/01/23 14:22:03;;;;;;;;;;;;;;;28.48;14.34;101186.16;5035602;28;927;-43
2022/01/23 14:24:28;;;;;;;;;;;;;;;29.07;14.80;101181.94;5028993;28;1024;-42
2022/01/23 14:26:57;;;;;;;;;;;;;;;29.06;14.97;101177.53;5016887;28;906;-47
2022/01/23 14:29:24;;;;;;;;;;;;;;;29.11;15.00;101184.25;5017060;28;752;-42
2022/01/23 14:32:05;;;;;;;;;;;;;;;29.06;15.29;101182.94;5022282;28;950;-45
2022/01/23 14:34:30;;;;;;;;;;;;;;;29.21;15.29;101187.53;5035800;28;1010;-48
2022/01/23 14:36:56;;;;;;;;;;;;;;;29.51;15.07;101194.81;5035076;28;1934;-49
2022/01/23 14:39:22;;;;;;;;;;;;;;;29.71;15.17;101195.09;5027029;28;786;-45
2022/01/23 14:41:48;;;;;;;;;;;;;;;29.76;15.29;101203.47;5016573;28;847;-42
2022/01/23 14:44:23;;;;;;;;;;;;;;;29.89;15.01;101204.69;5016670;28;840;-45
2022/01/23 14:46:49;;;;;;;;;;;;;;;30.04;15.15;101199.22;5016992;28;798;-48
2022/01/23 14:49:22;;;;;;;;;;;;;;;30.26;14.84;101204.69;5033350;28;1037;-44
2022/01/23 14:51:47;;;;;;;;;;;;;;;30.28;14.93;101208.06;5016806;28;843;-47
2022/01/23 14:54:12;;;;;;;;;;;;;;;30.39;14.92;101206.69;5016365;28;1153;-46
2022/01/23 14:56:39;;;;;;;;;;;;;;;30.57;15.01;101214.34;5035621;28;1951;-44
2022/01/23 14:59:08;;;;;;;;;;;;;;;30.59;14.98;101220.44;5035168;28;888;-46
2022/01/23 15:01:33;;;;;;;;;;;;;;;30.78;14.71;101221.63;5036286;28;817;-44
2022/01/23 15:04:04;;;;;;;;;;;;;;;30.97;14.60;101229.31;5022092;28;965;-46
2022/01/23 15:06:29;;;;;;;;;;;;;;;30.97;14.79;101234.75;5018744;28;782;-43
2022/01/23 15:08:55;;;;;;;;;;;;;;;31.03;14.53;101240.22;5034939;28;928;-45
2022/01/23 15:11:20;;;;;;;;;;;;;;;31.16;14.70;101246.81;5016491;28;855;-43
2022/01/23 15:13:45;;;;;;;;;;;;;;;31.27;14.58;101254.41;5016226;28;843;-42
2022/01/23 15:16:12;;;;;;;;;;;;;;;31.27;14.53;101259.84;5016228;28;1898;-45
2022/01/23 15:18:37;;;;;;;;;;;;;;;31.32;14.45;101263.81;5015895;28;857;-43
2022/01/23 15:21:02;;;;;;;;;;;;;;;31.34;14.78;101270.75;5016388;28;909;-44
2022/01/23 15:23:28;;;;;;;;;;;;;;;31.47;14.74;101274.59;5016296;28;1022;-44
2022/01/23 15:25:53;;;;;;;;;;;;;;;31.60;14.63;101277.41;5018647;28;790;-43
2022/01/23 15:28:19;;;;;;;;;;;;;;;31.66;14.52;101281.22;5015469;28;829;-43
2022/01/23 15:30:44;;;;;;;;;;;;;;;31.72;14.49;101285.84;5016823;28;810;-43
2022/01/23 15:33:09;;;;;;;;;;;;;;;31.75;14.38;101282.72;5016059;28;807;-45
2022/01/23 15:35:36;;;;;;;;;;;;;;;31.51;14.15;101290.31;5015860;28;1945;-39
2022/01/23 15:38:01;;;;;;;;;;;;;;;30.70;14.89;101281.50;5016282;28;787;-43
2022/01/23 15:40:26;;;;;;;;;;;;;;;30.32;15.26;101277.19;5017912;28;821;-44
2022/01/23 15:42:52;;;;;;;;;;;;;;;31.43;14.60;101295.09;5016052;28;1016;-42
2022/01/23 15:45:18;;;;;;;;;;;;;;;30.20;14.84;101290.41;5016331;28;774;-39
2022/01/23 15:47:43;;;;;;;;;;;;;;;29.91;15.21;101295.66;5016238;28;799;-40
2022/01/23 15:50:09;;;;;;;;;;;;;;;29.72;15.48;101293.53;5018927;28;1006;-38
2022/01/23 15:52:34;;;;;;;;;;;;;;;29.41;15.37;101296.19;5022455;28;1033;-40
2022/01/23 15:55:00;;;;;;;;;;;;;;;29.15;15.97;101292.06;5022128;28;1906;-39
2022/01/23 15:57:25;;;;;;;;;;;;;;;28.92;16.05;101303.75;5028323;28;1505;-37
2022/01/23 15:59:51;;;;;;;;;;;;;;;28.84;16.23;101295.69;5034927;28;922;-37
2022/01/23 16:02:16;;;;;;;;;;;;;;;28.73;16.39;101300.50;5035208;28;747;-37
2022/01/23 16:04:41;;;;;;;;;;;;;;;28.69;16.70;101304.59;5034725;28;838;-37
2022/01/23 16:07:09;;;;;;;;;;;;;;;28.63;16.55;101304.47;5019824;28;786;-38
2022/01/23 16:09:34;;;;;;;;;;;;;;;28.63;16.47;101307.19;5020849;28;1483;-37